sensor_id;sensor_type;location;lat;lon;timestamp;P1;durP1;ratioP1;P2;durP2;ratioP2
22034;SDS011;11181;51.002;4.356;2023-08-17T00:00:52;4.00;;;2.60;;
22034;SDS011;11181;51.002;4.356;2023-08-17T00:03:19;2.45;;;2.10;;
22034;SDS011;11181;51.002;4.356;2023-08-17T00:05:46;2.80;;;2.20;;
22034;SDS011;11181;51.002;4.356;2023-08-17T00:08:13;4.72;;;2.80;;
22034;SDS011;11181;51.002;4.356;2023-08-17T00:10:40;5.65;;;2.88;;
22034;SDS011;11181;51.002;4.356;2023-08-17T00:13:07;4.88;;;2.83;;
22034;SDS011;11181;51.002;4.356;2023-08-17T00:15:35;5.70;;;2.45;;
22034;SDS011;11181;51.002;4.356;2023-08-17T00:18:02;3.00;;;2.70;;
22034;SDS011;11181;51.002;4.356;2023-08-17T00:20:30;2.75;;;2.25;;
22034;SDS011;11181;51.002;4.356;2023-08-17T00:22:57;5.65;;;2.83;;
22034;SDS011;11181;51.002;4.356;2023-08-17T00:25:24;5.03;;;3.10;;
22034;SDS011;11181;51.002;4.356;2023-08-17T00:27:51;3.83;;;2.40;;
22034;SDS011;11181;51.002;4.356;2023-08-17T00:30:18;3.20;;;2.37;;
22034;SDS011;11181;51.002;4.356;2023-08-17T00:32:46;3.17;;;2.57;;
22034;SDS011;11181;51.002;4.356;2023-08-17T00:35:13;5.17;;;2.43;;
22034;SDS011;11181;51.002;4.356;2023-08-17T00:37:40;5.10;;;2.20;;
22034;SDS011;11181;51.002;4.356;2023-08-17T00:40:07;2.83;;;2.47;;
22034;SDS011;11181;51.002;4.356;2023-08-17T00:42:35;3.77;;;2.60;;
22034;SDS011;11181;51.002;4.356;2023-08-17T00:45:02;2.80;;;2.50;;
22034;SDS011;11181;51.002;4.356;2023-08-17T00:47:29;5.60;;;2.67;;
22034;SDS011;11181;51.002;4.356;2023-08-17T00:49:57;2.77;;;2.47;;
22034;SDS011;11181;51.002;4.356;2023-08-17T00:52:25;7.97;;;3.17;;
22034;SDS011;11181;51.002;4.356;2023-08-17T00:54:52;5.03;;;2.83;;
22034;SDS011;11181;51.002;4.356;2023-08-17T00:57:20;4.83;;;2.63;;
22034;SDS011;11181;51.002;4.356;2023-08-17T00:59:48;3.17;;;2.87;;
22034;SDS011;11181;51.002;4.356;2023-08-17T01:02:15;3.37;;;2.53;;
22034;SDS011;11181;51.002;4.356;2023-08-17T01:04:43;3.17;;;2.43;;
22034;SDS011;11181;51.002;4.356;2023-08-17T01:07:11;2.97;;;2.70;;
22034;SDS011;11181;51.002;4.356;2023-08-17T01:09:38;4.17;;;2.63;;
22034;SDS011;11181;51.002;4.356;2023-08-17T01:12:06;3.17;;;2.47;;
22034;SDS011;11181;51.002;4.356;2023-08-17T01:14:47;6.07;;;2.83;;
22034;SDS011;11181;51.002;4.356;2023-08-17T01:17:22;6.33;;;2.40;;
22034;SDS011;11181;51.002;4.356;2023-08-17T01:19:52;5.07;;;2.53;;
22034;SDS011;11181;51.002;4.356;2023-08-17T01:22:22;4.43;;;2.63;;
22034;SDS011;11181;51.002;4.356;2023-08-17T01:24:54;7.63;;;2.93;;
22034;SDS011;11181;51.002;4.356;2023-08-17T01:27:22;4.83;;;3.00;;
22034;SDS011;11181;51.002;4.356;2023-08-17T01:29:49;5.37;;;2.87;;
22034;SDS011;11181;51.002;4.356;2023-08-17T01:32:18;5.13;;;2.83;;
22034;SDS011;11181;51.002;4.356;2023-08-17T01:34:52;5.50;;;2.90;;
22034;SDS011;11181;51.002;4.356;2023-08-17T01:37:23;3.50;;;2.60;;
22034;SDS011;11181;51.002;4.356;2023-08-17T01:39:55;7.03;;;3.00;;
22034;SDS011;11181;51.002;4.356;2023-08-17T01:42:24;3.27;;;2.70;;
22034;SDS011;11181;51.002;4.356;2023-08-17T01:44:51;4.70;;;3.00;;
22034;SDS011;11181;51.002;4.356;2023-08-17T01:47:20;6.23;;;2.37;;
22034;SDS011;11181;51.002;4.356;2023-08-17T01:49:47;4.67;;;2.67;;
22034;SDS011;11181;51.002;4.356;2023-08-17T01:52:14;4.80;;;2.73;;
22034;SDS011;11181;51.002;4.356;2023-08-17T01:54:41;3.97;;;2.37;;
22034;SDS011;11181;51.002;4.356;2023-08-17T01:57:09;5.80;;;2.93;;
22034;SDS011;11181;51.002;4.356;2023-08-17T01:59:36;4.60;;;2.80;;
22034;SDS011;11181;51.002;4.356;2023-08-17T02:02:03;4.07;;;2.20;;
22034;SDS011;11181;51.002;4.356;2023-08-17T02:04:30;5.37;;;2.80;;
22034;SDS011;11181;51.002;4.356;2023-08-17T02:06:57;4.27;;;2.70;;
22034;SDS011;11181;51.002;4.356;2023-08-17T02:09:25;4.90;;;2.40;;
22034;SDS011;11181;51.002;4.356;2023-08-17T02:11:52;3.07;;;2.50;;
22034;SDS011;11181;51.002;4.356;2023-08-17T02:14:20;4.40;;;3.13;;
22034;SDS011;11181;51.002;4.356;2023-08-17T02:16:47;4.67;;;3.23;;
22034;SDS011;11181;51.002;4.356;2023-08-17T02:19:14;3.47;;;2.73;;
22034;SDS011;11181;51.002;4.356;2023-08-17T02:21:41;6.13;;;3.07;;
22034;SDS011;11181;51.002;4.356;2023-08-17T02:24:07;3.00;;;2.70;;
22034;SDS011;11181;51.002;4.356;2023-08-17T02:26:34;5.27;;;2.90;;
22034;SDS011;11181;51.002;4.356;2023-08-17T02:29:03;4.77;;;2.80;;
22034;SDS011;11181;51.002;4.356;2023-08-17T02:31:31;6.23;;;2.80;;
22034;SDS011;11181;51.002;4.356;2023-08-17T02:33:58;5.40;;;2.70;;
22034;SDS011;11181;51.002;4.356;2023-08-17T02:36:30;4.40;;;3.43;;
22034;SDS011;11181;51.002;4.356;2023-08-17T02:38:57;4.67;;;3.27;;
22034;SDS011;11181;51.002;4.356;2023-08-17T02:41:24;5.27;;;3.13;;
22034;SDS011;11181;51.002;4.356;2023-08-17T02:43:51;4.07;;;2.93;;
22034;SDS011;11181;51.002;4.356;2023-08-17T02:46:18;4.37;;;2.80;;
22034;SDS011;11181;51.002;4.356;2023-08-17T02:48:46;3.80;;;2.77;;
22034;SDS011;11181;51.002;4.356;2023-08-17T02:51:13;4.23;;;2.47;;
22034;SDS011;11181;51.002;4.356;2023-08-17T02:53:40;2.87;;;2.63;;
22034;SDS011;11181;51.002;4.356;2023-08-17T02:56:07;4.07;;;2.80;;
22034;SDS011;11181;51.002;4.356;2023-08-17T02:58:36;4.10;;;3.23;;
22034;SDS011;11181;51.002;4.356;2023-08-17T03:01:05;4.23;;;2.90;;
22034;SDS011;11181;51.002;4.356;2023-08-17T03:03:32;6.97;;;2.73;;
22034;SDS011;11181;51.002;4.356;2023-08-17T03:06:00;7.50;;;3.20;;
22034;SDS011;11181;51.002;4.356;2023-08-17T03:08:28;5.93;;;3.10;;
22034;SDS011;11181;51.002;4.356;2023-08-17T03:10:55;5.00;;;2.87;;
22034;SDS011;11181;51.002;4.356;2023-08-17T03:13:22;2.93;;;2.63;;
22034;SDS011;11181;51.002;4.356;2023-08-17T03:15:48;3.57;;;3.00;;
22034;SDS011;11181;51.002;4.356;2023-08-17T03:18:15;7.73;;;3.17;;
22034;SDS011;11181;51.002;4.356;2023-08-17T03:20:43;7.87;;;2.93;;
22034;SDS011;11181;51.002;4.356;2023-08-17T03:23:12;4.80;;;2.90;;
22034;SDS011;11181;51.002;4.356;2023-08-17T03:25:39;4.87;;;2.80;;
22034;SDS011;11181;51.002;4.356;2023-08-17T03:28:06;4.90;;;3.03;;
22034;SDS011;11181;51.002;4.356;2023-08-17T03:30:33;6.60;;;2.80;;
22034;SDS011;11181;51.002;4.356;2023-08-17T03:33:00;6.23;;;2.97;;
22034;SDS011;11181;51.002;4.356;2023-08-17T03:35:27;9.57;;;2.97;;
22034;SDS011;11181;51.002;4.356;2023-08-17T03:37:54;7.50;;;2.77;;
22034;SDS011;11181;51.002;4.356;2023-08-17T03:40:22;7.17;;;3.30;;
22034;SDS011;11181;51.002;4.356;2023-08-17T03:42:49;6.10;;;2.83;;
22034;SDS011;11181;51.002;4.356;2023-08-17T03:45:16;3.37;;;2.40;;
22034;SDS011;11181;51.002;4.356;2023-08-17T03:47:43;8.60;;;2.97;;
22034;SDS011;11181;51.002;4.356;2023-08-17T03:50:10;6.47;;;2.90;;
22034;SDS011;11181;51.002;4.356;2023-08-17T03:52:37;7.60;;;2.77;;
22034;SDS011;11181;51.002;4.356;2023-08-17T03:55:04;6.40;;;2.77;;
22034;SDS011;11181;51.002;4.356;2023-08-17T03:57:34;4.00;;;2.50;;
22034;SDS011;11181;51.002;4.356;2023-08-17T04:00:00;5.87;;;2.27;;
22034;SDS011;11181;51.002;4.356;2023-08-17T04:02:28;4.27;;;2.17;;
22034;SDS011;11181;51.002;4.356;2023-08-17T04:04:55;3.10;;;2.43;;
22034;SDS011;11181;51.002;4.356;2023-08-17T04:07:22;5.37;;;2.93;;
22034;SDS011;11181;51.002;4.356;2023-08-17T04:09:49;5.53;;;3.00;;
22034;SDS011;11181;51.002;4.356;2023-08-17T04:12:16;7.67;;;2.40;;
22034;SDS011;11181;51.002;4.356;2023-08-17T04:14:45;4.33;;;2.60;;
22034;SDS011;11181;51.002;4.356;2023-08-17T04:17:12;5.00;;;3.10;;
22034;SDS011;11181;51.002;4.356;2023-08-17T04:19:39;4.63;;;3.50;;
22034;SDS011;11181;51.002;4.356;2023-08-17T04:22:05;7.37;;;3.13;;
22034;SDS011;11181;51.002;4.356;2023-08-17T04:24:32;5.57;;;3.10;;
22034;SDS011;11181;51.002;4.356;2023-08-17T04:26:59;4.97;;;3.30;;
22034;SDS011;11181;51.002;4.356;2023-08-17T04:29:26;9.30;;;3.07;;
22034;SDS011;11181;51.002;4.356;2023-08-17T04:31:54;7.53;;;4.30;;
22034;SDS011;11181;51.002;4.356;2023-08-17T04:34:21;10.53;;;3.30;;
22034;SDS011;11181;51.002;4.356;2023-08-17T04:36:48;9.93;;;3.60;;
22034;SDS011;11181;51.002;4.356;2023-08-17T04:39:15;7.57;;;3.50;;
22034;SDS011;11181;51.002;4.356;2023-08-17T04:41:42;7.43;;;3.87;;
22034;SDS011;11181;51.002;4.356;2023-08-17T04:44:09;6.87;;;3.40;;
22034;SDS011;11181;51.002;4.356;2023-08-17T04:46:36;8.10;;;3.80;;
22034;SDS011;11181;51.002;4.356;2023-08-17T04:49:04;3.47;;;2.93;;
22034;SDS011;11181;51.002;4.356;2023-08-17T04:51:31;4.93;;;3.17;;
22034;SDS011;11181;51.002;4.356;2023-08-17T04:53:58;5.63;;;2.73;;
22034;SDS011;11181;51.002;4.356;2023-08-17T04:56:25;3.97;;;2.40;;
22034;SDS011;11181;51.002;4.356;2023-08-17T04:58:53;7.20;;;3.70;;
22034;SDS011;11181;51.002;4.356;2023-08-17T05:01:20;7.03;;;3.90;;
22034;SDS011;11181;51.002;4.356;2023-08-17T05:03:46;6.97;;;3.03;;
22034;SDS011;11181;51.002;4.356;2023-08-17T05:06:15;7.93;;;3.13;;
22034;SDS011;11181;51.002;4.356;2023-08-17T05:08:41;7.43;;;3.20;;
22034;SDS011;11181;51.002;4.356;2023-08-17T05:11:08;5.70;;;3.27;;
22034;SDS011;11181;51.002;4.356;2023-08-17T05:13:35;6.90;;;2.80;;
22034;SDS011;11181;51.002;4.356;2023-08-17T05:16:02;9.33;;;3.43;;
22034;SDS011;11181;51.002;4.356;2023-08-17T05:18:30;4.13;;;2.80;;
22034;SDS011;11181;51.002;4.356;2023-08-17T05:20:57;4.23;;;2.67;;
22034;SDS011;11181;51.002;4.356;2023-08-17T05:23:25;6.00;;;2.90;;
22034;SDS011;11181;51.002;4.356;2023-08-17T05:25:52;7.90;;;3.30;;
22034;SDS011;11181;51.002;4.356;2023-08-17T05:28:19;7.97;;;2.87;;
22034;SDS011;11181;51.002;4.356;2023-08-17T05:30:46;4.37;;;2.47;;
22034;SDS011;11181;51.002;4.356;2023-08-17T05:33:13;5.80;;;2.60;;
22034;SDS011;11181;51.002;4.356;2023-08-17T05:35:39;9.40;;;3.13;;
22034;SDS011;11181;51.002;4.356;2023-08-17T05:38:07;3.67;;;2.70;;
22034;SDS011;11181;51.002;4.356;2023-08-17T05:40:36;3.93;;;2.47;;
22034;SDS011;11181;51.002;4.356;2023-08-17T05:43:03;8.87;;;3.27;;
22034;SDS011;11181;51.002;4.356;2023-08-17T05:45:30;4.57;;;2.43;;
22034;SDS011;11181;51.002;4.356;2023-08-17T05:47:57;5.67;;;2.50;;
22034;SDS011;11181;51.002;4.356;2023-08-17T05:50:24;7.30;;;2.57;;
22034;SDS011;11181;51.002;4.356;2023-08-17T05:52:51;5.87;;;3.47;;
22034;SDS011;11181;51.002;4.356;2023-08-17T05:55:18;3.27;;;2.53;;
22034;SDS011;11181;51.002;4.356;2023-08-17T05:57:47;5.07;;;2.60;;
22034;SDS011;11181;51.002;4.356;2023-08-17T06:00:14;7.27;;;2.80;;
22034;SDS011;11181;51.002;4.356;2023-08-17T06:02:41;3.57;;;2.80;;
22034;SDS011;11181;51.002;4.356;2023-08-17T06:05:08;6.33;;;2.93;;
22034;SDS011;11181;51.002;4.356;2023-08-17T06:07:35;7.60;;;2.90;;
22034;SDS011;11181;51.002;4.356;2023-08-17T06:10:03;11.77;;;3.63;;
22034;SDS011;11181;51.002;4.356;2023-08-17T06:12:31;8.17;;;2.87;;
22034;SDS011;11181;51.002;4.356;2023-08-17T06:15:00;6.07;;;2.87;;
22034;SDS011;11181;51.002;4.356;2023-08-17T06:17:28;7.23;;;2.93;;
22034;SDS011;11181;51.002;4.356;2023-08-17T06:19:55;6.47;;;2.73;;
22034;SDS011;11181;51.002;4.356;2023-08-17T06:22:22;4.63;;;2.13;;
22034;SDS011;11181;51.002;4.356;2023-08-17T06:24:49;6.20;;;2.93;;
22034;SDS011;11181;51.002;4.356;2023-08-17T06:27:16;6.47;;;2.77;;
22034;SDS011;11181;51.002;4.356;2023-08-17T06:29:43;4.17;;;2.30;;
22034;SDS011;11181;51.002;4.356;2023-08-17T06:32:11;5.57;;;2.63;;
22034;SDS011;11181;51.002;4.356;2023-08-17T06:34:38;4.03;;;2.67;;
22034;SDS011;11181;51.002;4.356;2023-08-17T06:37:05;4.73;;;2.57;;
22034;SDS011;11181;51.002;4.356;2023-08-17T06:39:32;6.50;;;2.90;;
22034;SDS011;11181;51.002;4.356;2023-08-17T06:41:59;5.63;;;2.60;;
22034;SDS011;11181;51.002;4.356;2023-08-17T06:44:25;6.70;;;2.50;;
22034;SDS011;11181;51.002;4.356;2023-08-17T06:46:54;4.37;;;2.43;;
22034;SDS011;11181;51.002;4.356;2023-08-17T06:49:22;3.93;;;2.83;;
22034;SDS011;11181;51.002;4.356;2023-08-17T06:51:49;4.87;;;2.83;;
22034;SDS011;11181;51.002;4.356;2023-08-17T06:54:16;5.20;;;2.37;;
22034;SDS011;11181;51.002;4.356;2023-08-17T06:56:43;4.43;;;2.73;;
22034;SDS011;11181;51.002;4.356;2023-08-17T06:59:10;8.37;;;3.20;;
22034;SDS011;11181;51.002;4.356;2023-08-17T07:01:37;4.17;;;2.80;;
22034;SDS011;11181;51.002;4.356;2023-08-17T07:04:04;4.07;;;3.03;;
22034;SDS011;11181;51.002;4.356;2023-08-17T07:06:32;5.07;;;2.53;;
22034;SDS011;11181;51.002;4.356;2023-08-17T07:08:59;5.43;;;2.70;;
22034;SDS011;11181;51.002;4.356;2023-08-17T07:11:30;4.17;;;3.50;;
22034;SDS011;11181;51.002;4.356;2023-08-17T07:13:56;4.93;;;3.13;;
22034;SDS011;11181;51.002;4.356;2023-08-17T07:16:23;3.43;;;2.87;;
22034;SDS011;11181;51.002;4.356;2023-08-17T07:18:50;5.87;;;3.00;;
22034;SDS011;11181;51.002;4.356;2023-08-17T07:21:17;3.97;;;2.60;;
22034;SDS011;11181;51.002;4.356;2023-08-17T07:23:45;7.37;;;2.70;;
22034;SDS011;11181;51.002;4.356;2023-08-17T07:26:12;3.17;;;2.87;;
22034;SDS011;11181;51.002;4.356;2023-08-17T07:28:39;3.73;;;2.73;;
22034;SDS011;11181;51.002;4.356;2023-08-17T07:31:06;6.37;;;3.00;;
22034;SDS011;11181;51.002;4.356;2023-08-17T07:33:33;4.10;;;2.70;;
22034;SDS011;11181;51.002;4.356;2023-08-17T07:36:00;5.30;;;3.17;;
22034;SDS011;11181;51.002;4.356;2023-08-17T07:38:27;5.57;;;2.97;;
22034;SDS011;11181;51.002;4.356;2023-08-17T07:40:55;6.37;;;2.90;;
22034;SDS011;11181;51.002;4.356;2023-08-17T07:43:22;9.00;;;3.53;;
22034;SDS011;11181;51.002;4.356;2023-08-17T07:45:52;13.77;;;4.23;;
22034;SDS011;11181;51.002;4.356;2023-08-17T07:48:20;3.60;;;2.60;;
22034;SDS011;11181;51.002;4.356;2023-08-17T07:50:48;2.97;;;2.53;;
22034;SDS011;11181;51.002;4.356;2023-08-17T07:53:15;4.80;;;2.63;;
22034;SDS011;11181;51.002;4.356;2023-08-17T07:55:43;5.77;;;3.13;;
22034;SDS011;11181;51.002;4.356;2023-08-17T07:58:11;3.43;;;2.77;;
22034;SDS011;11181;51.002;4.356;2023-08-17T08:00:39;4.20;;;2.47;;
22034;SDS011;11181;51.002;4.356;2023-08-17T08:03:06;6.77;;;3.20;;
22034;SDS011;11181;51.002;4.356;2023-08-17T08:05:32;4.00;;;2.50;;
22034;SDS011;11181;51.002;4.356;2023-08-17T08:07:59;4.40;;;2.70;;
22034;SDS011;11181;51.002;4.356;2023-08-17T08:10:26;4.93;;;3.00;;
22034;SDS011;11181;51.002;4.356;2023-08-17T08:12:54;4.53;;;2.90;;
22034;SDS011;11181;51.002;4.356;2023-08-17T08:15:22;8.00;;;3.10;;
22034;SDS011;11181;51.002;4.356;2023-08-17T08:17:49;5.00;;;3.20;;
22034;SDS011;11181;51.002;4.356;2023-08-17T08:20:16;4.37;;;2.80;;
22034;SDS011;11181;51.002;4.356;2023-08-17T08:22:43;4.63;;;3.17;;
22034;SDS011;11181;51.002;4.356;2023-08-17T08:25:10;4.40;;;2.77;;
22034;SDS011;11181;51.002;4.356;2023-08-17T08:27:37;7.03;;;2.90;;
22034;SDS011;11181;51.002;4.356;2023-08-17T08:30:04;4.80;;;3.00;;
22034;SDS011;11181;51.002;4.356;2023-08-17T08:32:33;5.43;;;2.70;;
22034;SDS011;11181;51.002;4.356;2023-08-17T08:35:02;5.67;;;3.53;;
22034;SDS011;11181;51.002;4.356;2023-08-17T08:37:29;8.07;;;3.53;;
22034;SDS011;11181;51.002;4.356;2023-08-17T08:39:56;5.43;;;2.83;;
22034;SDS011;11181;51.002;4.356;2023-08-17T08:42:23;5.47;;;2.73;;
22034;SDS011;11181;51.002;4.356;2023-08-17T08:44:51;3.67;;;2.83;;
22034;SDS011;11181;51.002;4.356;2023-08-17T08:47:18;5.40;;;3.10;;
22034;SDS011;11181;51.002;4.356;2023-08-17T08:49:49;9.40;;;3.73;;
22034;SDS011;11181;51.002;4.356;2023-08-17T08:52:26;9.23;;;3.53;;
22034;SDS011;11181;51.002;4.356;2023-08-17T08:54:58;4.00;;;2.70;;
22034;SDS011;11181;51.002;4.356;2023-08-17T08:57:32;6.07;;;3.47;;
22034;SDS011;11181;51.002;4.356;2023-08-17T08:59:59;4.70;;;3.53;;
22034;SDS011;11181;51.002;4.356;2023-08-17T09:02:27;7.57;;;3.70;;
22034;SDS011;11181;51.002;4.356;2023-08-17T09:04:57;5.77;;;3.27;;
22034;SDS011;11181;51.002;4.356;2023-08-17T09:07:25;7.57;;;3.40;;
22034;SDS011;11181;51.002;4.356;2023-08-17T09:09:55;5.83;;;3.23;;
22034;SDS011;11181;51.002;4.356;2023-08-17T09:12:22;5.23;;;3.77;;
22034;SDS011;11181;51.002;4.356;2023-08-17T09:14:51;8.90;;;3.60;;
22034;SDS011;11181;51.002;4.356;2023-08-17T09:17:22;5.93;;;3.40;;
22034;SDS011;11181;51.002;4.356;2023-08-17T09:19:50;8.97;;;3.93;;
22034;SDS011;11181;51.002;4.356;2023-08-17T09:22:23;4.83;;;3.07;;
22034;SDS011;11181;51.002;4.356;2023-08-17T09:24:50;4.28;;;3.45;;
22034;SDS011;11181;51.002;4.356;2023-08-17T09:27:17;5.57;;;3.42;;
22034;SDS011;11181;51.002;4.356;2023-08-17T09:29:44;5.22;;;3.30;;
22034;SDS011;11181;51.002;4.356;2023-08-17T09:32:14;6.05;;;4.10;;
22034;SDS011;11181;51.002;4.356;2023-08-17T09:34:41;5.17;;;3.63;;
22034;SDS011;11181;51.002;4.356;2023-08-17T09:37:08;4.57;;;3.87;;
22034;SDS011;11181;51.002;4.356;2023-08-17T09:39:39;5.93;;;3.93;;
22034;SDS011;11181;51.002;4.356;2023-08-17T09:42:06;6.80;;;4.23;;
22034;SDS011;11181;51.002;4.356;2023-08-17T09:44:34;4.07;;;3.60;;
22034;SDS011;11181;51.002;4.356;2023-08-17T09:47:01;6.43;;;4.10;;
22034;SDS011;11181;51.002;4.356;2023-08-17T09:49:30;4.82;;;4.05;;
22034;SDS011;11181;51.002;4.356;2023-08-17T09:51:59;7.63;;;4.20;;
22034;SDS011;11181;51.002;4.356;2023-08-17T09:54:27;5.63;;;3.87;;
22034;SDS011;11181;51.002;4.356;2023-08-17T09:56:58;6.30;;;3.78;;
22034;SDS011;11181;51.002;4.356;2023-08-17T09:59:25;6.00;;;3.85;;
22034;SDS011;11181;51.002;4.356;2023-08-17T10:01:52;6.75;;;4.30;;
22034;SDS011;11181;51.002;4.356;2023-08-17T10:04:20;7.47;;;5.05;;
22034;SDS011;11181;51.002;4.356;2023-08-17T10:06:50;5.50;;;3.90;;
22034;SDS011;11181;51.002;4.356;2023-08-17T10:09:22;4.95;;;4.00;;
22034;SDS011;11181;51.002;4.356;2023-08-17T10:11:51;7.28;;;4.43;;
22034;SDS011;11181;51.002;4.356;2023-08-17T10:14:23;9.75;;;4.25;;
22034;SDS011;11181;51.002;4.356;2023-08-17T10:16:57;7.07;;;4.30;;
22034;SDS011;11181;51.002;4.356;2023-08-17T10:19:30;7.40;;;4.13;;
22034;SDS011;11181;51.002;4.356;2023-08-17T10:22:06;7.45;;;4.00;;
22034;SDS011;11181;51.002;4.356;2023-08-17T10:24:38;8.65;;;3.92;;
22034;SDS011;11181;51.002;4.356;2023-08-17T10:27:06;6.25;;;4.30;;
22034;SDS011;11181;51.002;4.356;2023-08-17T10:29:36;9.50;;;4.38;;
22034;SDS011;11181;51.002;4.356;2023-08-17T10:32:05;7.88;;;4.82;;
22034;SDS011;11181;51.002;4.356;2023-08-17T10:34:32;7.43;;;4.28;;
22034;SDS011;11181;51.002;4.356;2023-08-17T10:37:00;6.35;;;4.93;;
22034;SDS011;11181;51.002;4.356;2023-08-17T10:39:28;6.47;;;4.13;;
22034;SDS011;11181;51.002;4.356;2023-08-17T10:41:56;7.10;;;3.95;;
22034;SDS011;11181;51.002;4.356;2023-08-17T10:44:43;6.22;;;4.55;;
22034;SDS011;11181;51.002;4.356;2023-08-17T10:49:57;5.72;;;4.43;;
22034;SDS011;11181;51.002;4.356;2023-08-17T10:52:26;7.82;;;4.85;;
22034;SDS011;11181;51.002;4.356;2023-08-17T10:54:54;7.97;;;4.70;;
22034;SDS011;11181;51.002;4.356;2023-08-17T10:57:25;9.75;;;5.55;;
22034;SDS011;11181;51.002;4.356;2023-08-17T11:00:11;9.73;;;5.43;;
22034;SDS011;11181;51.002;4.356;2023-08-17T11:02:53;6.95;;;4.75;;
22034;SDS011;11181;51.002;4.356;2023-08-17T11:05:36;6.93;;;5.72;;
22034;SDS011;11181;51.002;4.356;2023-08-17T11:08:04;6.95;;;4.80;;
22034;SDS011;11181;51.002;4.356;2023-08-17T11:10:31;7.65;;;4.80;;
22034;SDS011;11181;51.002;4.356;2023-08-17T11:12:59;7.85;;;5.05;;
22034;SDS011;11181;51.002;4.356;2023-08-17T11:15:35;7.75;;;5.35;;
22034;SDS011;11181;51.002;4.356;2023-08-17T11:18:07;6.53;;;4.28;;
22034;SDS011;11181;51.002;4.356;2023-08-17T11:20:35;8.05;;;6.10;;
22034;SDS011;11181;51.002;4.356;2023-08-17T11:23:04;10.10;;;5.10;;
22034;SDS011;11181;51.002;4.356;2023-08-17T11:25:31;9.13;;;5.28;;
22034;SDS011;11181;51.002;4.356;2023-08-17T11:27:59;6.60;;;4.82;;
22034;SDS011;11181;51.002;4.356;2023-08-17T11:30:26;6.93;;;5.30;;
22034;SDS011;11181;51.002;4.356;2023-08-17T11:32:55;7.53;;;5.35;;
22034;SDS011;11181;51.002;4.356;2023-08-17T11:35:23;5.47;;;4.93;;
22034;SDS011;11181;51.002;4.356;2023-08-17T11:37:50;4.68;;;4.18;;
22034;SDS011;11181;51.002;4.356;2023-08-17T11:40:17;6.20;;;5.60;;
22034;SDS011;11181;51.002;4.356;2023-08-17T11:42:44;6.68;;;4.85;;
22034;SDS011;11181;51.002;4.356;2023-08-17T11:45:12;5.38;;;4.47;;
22034;SDS011;11181;51.002;4.356;2023-08-17T11:47:39;8.32;;;5.05;;
22034;SDS011;11181;51.002;4.356;2023-08-17T11:50:09;11.90;;;5.80;;
22034;SDS011;11181;51.002;4.356;2023-08-17T11:52:37;6.85;;;5.47;;
22034;SDS011;11181;51.002;4.356;2023-08-17T11:55:05;7.40;;;5.07;;
22034;SDS011;11181;51.002;4.356;2023-08-17T11:57:33;9.23;;;5.25;;
22034;SDS011;11181;51.002;4.356;2023-08-17T12:00:01;6.22;;;4.97;;
22034;SDS011;11181;51.002;4.356;2023-08-17T12:02:31;5.97;;;5.05;;
22034;SDS011;11181;51.002;4.356;2023-08-17T12:05:02;5.97;;;5.30;;
22034;SDS011;11181;51.002;4.356;2023-08-17T12:07:32;10.82;;;6.25;;
22034;SDS011;11181;51.002;4.356;2023-08-17T12:09:59;7.70;;;5.72;;
22034;SDS011;11181;51.002;4.356;2023-08-17T12:12:29;9.77;;;5.53;;
22034;SDS011;11181;51.002;4.356;2023-08-17T12:14:57;6.68;;;4.95;;
22034;SDS011;11181;51.002;4.356;2023-08-17T12:17:24;10.43;;;5.72;;
22034;SDS011;11181;51.002;4.356;2023-08-17T12:19:54;12.63;;;5.88;;
22034;SDS011;11181;51.002;4.356;2023-08-17T12:22:23;7.07;;;6.28;;
22034;SDS011;11181;51.002;4.356;2023-08-17T12:24:52;7.40;;;4.88;;
22034;SDS011;11181;51.002;4.356;2023-08-17T12:27:22;10.15;;;5.35;;
22034;SDS011;11181;51.002;4.356;2023-08-17T12:29:50;10.70;;;6.18;;
22034;SDS011;11181;51.002;4.356;2023-08-17T12:32:18;11.60;;;7.40;;
22034;SDS011;11181;51.002;4.356;2023-08-17T12:34:46;8.45;;;6.60;;
22034;SDS011;11181;51.002;4.356;2023-08-17T12:37:17;9.57;;;6.28;;
22034;SDS011;11181;51.002;4.356;2023-08-17T12:39:45;8.38;;;6.60;;
22034;SDS011;11181;51.002;4.356;2023-08-17T12:42:14;6.93;;;6.20;;
22034;SDS011;11181;51.002;4.356;2023-08-17T12:44:42;12.15;;;6.38;;
22034;SDS011;11181;51.002;4.356;2023-08-17T12:47:10;9.65;;;6.72;;
22034;SDS011;11181;51.002;4.356;2023-08-17T12:49:37;9.82;;;7.63;;
22034;SDS011;11181;51.002;4.356;2023-08-17T12:52:03;7.43;;;6.50;;
22034;SDS011;11181;51.002;4.356;2023-08-17T12:54:30;12.40;;;7.30;;
22034;SDS011;11181;51.002;4.356;2023-08-17T12:56:57;10.52;;;8.85;;
22034;SDS011;11181;51.002;4.356;2023-08-17T12:59:26;10.05;;;7.00;;
22034;SDS011;11181;51.002;4.356;2023-08-17T13:01:52;11.82;;;8.13;;
22034;SDS011;11181;51.002;4.356;2023-08-17T13:04:19;10.27;;;8.40;;
22034;SDS011;11181;51.002;4.356;2023-08-17T13:06:46;8.75;;;7.78;;
22034;SDS011;11181;51.002;4.356;2023-08-17T13:09:16;10.55;;;9.25;;
22034;SDS011;11181;51.002;4.356;2023-08-17T13:11:43;10.70;;;7.22;;
22034;SDS011;11181;51.002;4.356;2023-08-17T13:14:10;12.70;;;7.20;;
22034;SDS011;11181;51.002;4.356;2023-08-17T13:16:39;9.00;;;7.32;;
22034;SDS011;11181;51.002;4.356;2023-08-17T13:19:06;11.80;;;7.35;;
22034;SDS011;11181;51.002;4.356;2023-08-17T13:21:33;11.52;;;8.18;;
22034;SDS011;11181;51.002;4.356;2023-08-17T13:23:59;8.85;;;7.00;;
22034;SDS011;11181;51.002;4.356;2023-08-17T13:26:28;9.50;;;7.45;;
22034;SDS011;11181;51.002;4.356;2023-08-17T13:28:55;11.15;;;8.13;;
22034;SDS011;11181;51.002;4.356;2023-08-17T13:31:22;10.75;;;7.82;;
22034;SDS011;11181;51.002;4.356;2023-08-17T13:33:50;12.73;;;7.60;;
22034;SDS011;11181;51.002;4.356;2023-08-17T13:36:17;12.45;;;8.00;;
22034;SDS011;11181;51.002;4.356;2023-08-17T13:38:44;12.70;;;8.30;;
22034;SDS011;11181;51.002;4.356;2023-08-17T13:41:11;10.80;;;8.02;;
22034;SDS011;11181;51.002;4.356;2023-08-17T13:43:38;11.50;;;7.68;;
22034;SDS011;11181;51.002;4.356;2023-08-17T13:46:05;9.35;;;7.10;;
22034;SDS011;11181;51.002;4.356;2023-08-17T13:48:32;9.15;;;7.53;;
22034;SDS011;11181;51.002;4.356;2023-08-17T13:51:00;9.05;;;7.63;;
22034;SDS011;11181;51.002;4.356;2023-08-17T13:53:27;9.63;;;6.88;;
22034;SDS011;11181;51.002;4.356;2023-08-17T13:55:54;13.15;;;8.05;;
22034;SDS011;11181;51.002;4.356;2023-08-17T13:58:21;9.73;;;7.05;;
22034;SDS011;11181;51.002;4.356;2023-08-17T14:00:48;15.13;;;8.00;;
22034;SDS011;11181;51.002;4.356;2023-08-17T14:03:15;10.82;;;6.43;;
22034;SDS011;11181;51.002;4.356;2023-08-17T14:05:42;10.40;;;7.07;;
22034;SDS011;11181;51.002;4.356;2023-08-17T14:08:11;11.32;;;6.63;;
22034;SDS011;11181;51.002;4.356;2023-08-17T14:10:37;10.43;;;8.07;;
22034;SDS011;11181;51.002;4.356;2023-08-17T14:13:04;8.60;;;7.20;;
22034;SDS011;11181;51.002;4.356;2023-08-17T14:15:31;7.63;;;6.85;;
22034;SDS011;11181;51.002;4.356;2023-08-17T14:17:58;8.75;;;7.95;;
22034;SDS011;11181;51.002;4.356;2023-08-17T14:20:25;8.32;;;7.35;;
22034;SDS011;11181;51.002;4.356;2023-08-17T14:22:52;8.00;;;7.20;;
22034;SDS011;11181;51.002;4.356;2023-08-17T14:25:20;9.45;;;7.30;;
22034;SDS011;11181;51.002;4.356;2023-08-17T14:27:47;12.48;;;7.55;;
22034;SDS011;11181;51.002;4.356;2023-08-17T14:30:14;11.93;;;8.13;;
22034;SDS011;11181;51.002;4.356;2023-08-17T14:32:41;9.25;;;7.72;;
22034;SDS011;11181;51.002;4.356;2023-08-17T14:35:08;9.60;;;7.28;;
22034;SDS011;11181;51.002;4.356;2023-08-17T14:37:35;10.73;;;8.10;;
22034;SDS011;11181;51.002;4.356;2023-08-17T14:40:02;10.48;;;7.22;;
22034;SDS011;11181;51.002;4.356;2023-08-17T14:42:31;9.73;;;7.55;;
22034;SDS011;11181;51.002;4.356;2023-08-17T14:44:58;10.23;;;7.00;;
22034;SDS011;11181;51.002;4.356;2023-08-17T14:47:25;11.88;;;6.72;;
22034;SDS011;11181;51.002;4.356;2023-08-17T14:49:51;9.18;;;6.88;;
22034;SDS011;11181;51.002;4.356;2023-08-17T14:52:19;13.00;;;7.65;;